CheckWX is a tool to help pilots better visualize weather data.  It is not intended as a substitute for an official pre-flight weather briefing.

19:14:16 UTC

ENNO METAR
Notodden Airport
Norway
Current

2 hours ago

ENNO 261650Z 10014KT CAVOK 15/05 Q0998
Observed
May-26 @ 16:50 UTC
Wind
  • 100° at 14 KTS
Visibility
10,000+ meters
Flight Rules
VFR
Cloud Levels
  • Clear skies
Temperature
15°C / 59°F
Dewpoint
C / 41°F
Humidity
51%
Altimeter
29.47" Hg
Pressure
997.92 hPa
Previous

3 hours ago

ENNO 261550Z 17006KT 120V220 CAVOK 17/03 Q0998
Observed
May-26 @ 15:50 UTC
Wind
  • 170° at 6 KTS
Visibility
10,000+ meters
Flight Rules
VFR
Cloud Levels
  • Clear skies
Temperature
17°C / 63°F
Dewpoint
C / 37°F
Humidity
39%
Altimeter
29.47" Hg
Pressure
997.92 hPa
Previous

4 hours ago

ENNO 261450Z 12009KT CAVOK 18/04 Q0998
Observed
May-26 @ 14:50 UTC
Wind
  • 120° at 9 KTS
Visibility
10,000+ meters
Flight Rules
VFR
Cloud Levels
  • Clear skies
Temperature
18°C / 64°F
Dewpoint
C / 39°F
Humidity
40%
Altimeter
29.47" Hg
Pressure
997.92 hPa